createdAt,value
2023-02-04T00:00:39.067Z,59.67
2023-02-04T00:03:11.892Z,50.92
2023-02-04T00:05:45.380Z,53.83
2023-02-04T00:08:18.002Z,52.43
2023-02-04T00:10:51.694Z,51.28
2023-02-04T00:13:24.518Z,53.42
2023-02-04T00:15:58.201Z,55.30
2023-02-04T00:18:31.799Z,52.83
2023-02-04T00:21:04.665Z,52.47
2023-02-04T00:23:37.764Z,51.07
2023-02-04T00:26:12.224Z,52.78
2023-02-04T00:28:45.526Z,55.38
2023-02-04T00:31:20.253Z,49.93
2023-02-04T00:33:53.512Z,46.20
2023-02-04T00:36:26.253Z,50.05
2023-02-04T00:38:59.147Z,50.38
2023-02-04T00:41:32.066Z,49.20
2023-02-04T00:44:05.551Z,48.42
2023-02-04T00:46:38.497Z,41.08
2023-02-04T00:49:12.442Z,41.98
2023-02-04T00:51:47.895Z,45.60
2023-02-04T00:54:20.956Z,42.83
2023-02-04T00:56:53.807Z,47.90
2023-02-04T00:59:27.743Z,50.95
2023-02-04T01:02:00.823Z,48.30
2023-02-04T01:04:34.603Z,42.20
2023-02-04T01:07:08.868Z,50.23
2023-02-04T01:12:14.091Z,48.50
2023-02-04T01:14:47.525Z,48.20
2023-02-04T01:17:21.458Z,49.23
2023-02-04T01:19:55.293Z,43.63
2023-02-04T01:22:29.406Z,45.98
2023-02-04T01:25:02.231Z,47.93
2023-02-04T01:27:47.670Z,37.67
2023-02-04T01:30:21.133Z,38.23
2023-02-04T01:32:54.363Z,44.73
2023-02-04T01:35:27.540Z,42.40
2023-02-04T01:38:00.598Z,42.25
2023-02-04T01:40:35.025Z,53.65
2023-02-04T01:43:08.668Z,60.25
2023-02-04T01:45:41.585Z,72.60
2023-02-04T01:48:16.212Z,80.42
2023-02-04T01:50:54.363Z,73.10
2023-02-04T01:53:28.537Z,76.05
2023-02-04T01:56:02.013Z,69.45
2023-02-04T01:58:35.902Z,56.20
2023-02-04T02:01:15.109Z,66.97
2023-02-04T02:03:47.799Z,54.88
2023-02-04T02:06:21.194Z,58.80
2023-02-04T02:08:54.777Z,60.17
2023-02-04T02:11:28.733Z,58.68
2023-02-04T02:14:02.741Z,64.07
2023-02-04T02:16:35.947Z,54.27
2023-02-04T02:19:11.717Z,55.30
2023-02-04T02:21:49.199Z,59.33
2023-02-04T02:24:34.362Z,54.08
2023-02-04T02:27:10.648Z,48.80
2023-02-04T02:29:44.588Z,54.05
2023-02-04T02:34:50.843Z,52.08
2023-02-04T02:37:23.688Z,38.45
2023-02-04T02:39:56.577Z,26.75
2023-02-04T02:42:29.555Z,15.85
2023-02-04T02:45:07.077Z,19.20
2023-02-04T02:47:40.056Z,17.67
2023-02-04T02:50:16.731Z,16.17
2023-02-04T02:52:49.645Z,15.95
2023-02-04T02:55:25.766Z,21.40
2023-02-04T02:57:59.221Z,27.75
2023-02-04T03:00:32.867Z,25.32
2023-02-04T03:03:22.496Z,23.22
2023-02-04T03:05:59.483Z,19.45
2023-02-04T03:08:33.198Z,20.00
2023-02-04T03:11:06.615Z,17.17
2023-02-04T03:16:12.758Z,17.75
2023-02-04T03:18:45.708Z,15.83
2023-02-04T03:21:18.827Z,15.23
2023-02-04T03:23:52.080Z,15.17
2023-02-04T03:26:26.760Z,14.50
2023-02-04T03:29:00.650Z,14.85
2023-02-04T03:31:34.238Z,16.30
2023-02-04T03:34:07.564Z,17.02
2023-02-04T03:36:40.660Z,16.57
2023-02-04T03:39:14.039Z,15.48
2023-02-04T03:41:47.439Z,17.50
2023-02-04T03:44:22.123Z,15.93
2023-02-04T03:46:56.761Z,16.45
2023-02-04T03:49:29.642Z,16.17
2023-02-04T03:52:02.825Z,14.23
2023-02-04T03:54:35.985Z,15.77
2023-02-04T03:57:08.844Z,19.20
2023-02-04T03:59:42.033Z,13.28
2023-02-04T04:02:14.743Z,14.05
2023-02-04T04:04:47.716Z,14.18
2023-02-04T04:07:20.438Z,14.73
2023-02-04T04:09:53.666Z,17.20
2023-02-04T04:12:26.823Z,16.85
2023-02-04T04:15:00.405Z,14.20
2023-02-04T04:17:33.590Z,12.98
2023-02-04T04:20:08.174Z,15.13
2023-02-04T04:22:41.211Z,13.05
2023-02-04T04:25:13.964Z,14.10
2023-02-04T04:27:46.954Z,16.57
2023-02-04T04:30:20.777Z,16.60
2023-02-04T04:32:53.560Z,17.75
2023-02-04T04:35:27.052Z,17.57
2023-02-04T04:37:59.885Z,18.25
2023-02-04T04:40:33.476Z,22.03
2023-02-04T04:43:06.657Z,21.52
2023-02-04T04:45:39.982Z,18.40
2023-02-04T04:48:12.892Z,20.17
2023-02-04T04:50:46.258Z,18.42
2023-02-04T04:53:19.498Z,18.43
2023-02-04T04:55:52.240Z,25.20
2023-02-04T04:58:25.399Z,22.30
2023-02-04T05:00:58.671Z,21.07
2023-02-04T05:03:31.631Z,22.37
2023-02-04T05:06:04.913Z,20.77
2023-02-04T05:08:38.160Z,19.77
2023-02-04T05:11:11.678Z,15.98
2023-02-04T05:13:44.586Z,20.85
2023-02-04T05:16:18.544Z,21.93
2023-02-04T05:18:51.448Z,25.02
2023-02-04T05:21:24.431Z,19.32
2023-02-04T05:23:57.280Z,20.23
2023-02-04T05:26:31.339Z,20.50
2023-02-04T05:29:04.775Z,22.32
2023-02-04T05:31:38.005Z,22.98
2023-02-04T05:34:10.818Z,24.63
2023-02-04T05:36:44.252Z,21.85
2023-02-04T05:39:17.295Z,23.80
2023-02-04T05:41:50.271Z,21.62
2023-02-04T05:44:23.261Z,25.05
2023-02-04T05:46:56.235Z,22.98
2023-02-04T05:49:29.284Z,25.07
2023-02-04T05:52:02.208Z,23.52
2023-02-04T05:54:35.420Z,20.43
2023-02-04T05:57:08.617Z,22.80
2023-02-04T05:59:41.899Z,21.77
2023-02-04T06:02:16.456Z,30.15
2023-02-04T06:04:49.559Z,21.05
2023-02-04T06:07:22.502Z,23.62
2023-02-04T06:09:55.581Z,18.48
2023-02-04T06:12:28.464Z,17.82
2023-02-04T06:15:01.562Z,18.15
2023-02-04T06:17:34.800Z,18.87
2023-02-04T06:20:08.941Z,17.73
2023-02-04T06:22:42.260Z,17.77
2023-02-04T06:25:15.578Z,19.27
2023-02-04T06:27:49.386Z,19.90
2023-02-04T06:30:22.407Z,18.20
2023-02-04T06:32:55.603Z,20.83
2023-02-04T06:35:28.514Z,20.32
2023-02-04T06:38:01.878Z,20.50
2023-02-04T06:40:34.985Z,17.62
2023-02-04T06:43:08.043Z,22.42
2023-02-04T06:45:41.476Z,23.42
2023-02-04T06:48:14.653Z,24.55
2023-02-04T06:50:47.960Z,20.50
2023-02-04T06:53:21.040Z,25.65
2023-02-04T06:55:53.820Z,23.18
2023-02-04T06:58:26.824Z,25.77
2023-02-04T07:00:59.749Z,42.55
2023-02-04T07:03:32.615Z,38.30
2023-02-04T07:08:38.419Z,25.97
2023-02-04T07:11:12.588Z,23.02
2023-02-04T07:13:45.626Z,40.08
2023-02-04T07:16:18.779Z,39.20
2023-02-04T07:18:51.787Z,28.07
2023-02-04T07:21:24.714Z,24.15
2023-02-04T07:23:57.558Z,22.85
2023-02-04T07:26:32.169Z,22.80
2023-02-04T07:29:07.121Z,28.07
2023-02-04T07:31:39.894Z,24.87
2023-02-04T07:34:16.160Z,34.23
2023-02-04T07:36:49.022Z,27.90
2023-02-04T07:39:22.409Z,33.90
2023-02-04T07:41:55.687Z,27.82
2023-02-04T07:44:30.105Z,27.98
2023-02-04T07:47:02.898Z,27.80
2023-02-04T07:49:35.685Z,38.90
2023-02-04T07:52:09.881Z,34.92
2023-02-04T07:54:43.187Z,30.23
2023-02-04T07:57:15.894Z,26.23
2023-02-04T07:59:49.195Z,25.25
2023-02-04T08:02:22.237Z,25.40
2023-02-04T08:04:55.176Z,24.35
2023-02-04T08:07:28.148Z,29.67
2023-02-04T08:10:01.025Z,22.55
2023-02-04T08:12:34.927Z,22.80
2023-02-04T08:15:09.379Z,25.00
2023-02-04T08:17:43.065Z,24.15
2023-02-04T08:20:17.938Z,20.97
2023-02-04T08:22:50.987Z,19.62
2023-02-04T08:25:23.876Z,20.68
2023-02-04T08:27:57.483Z,18.02
2023-02-04T08:30:32.215Z,17.17
2023-02-04T08:33:05.929Z,19.87
2023-02-04T08:35:38.824Z,19.98
2023-02-04T08:38:11.631Z,19.55
2023-02-04T08:40:44.972Z,20.80
2023-02-04T08:43:17.748Z,19.82
2023-02-04T08:45:51.403Z,19.48
2023-02-04T08:48:24.201Z,17.32
2023-02-04T08:50:57.516Z,18.33
2023-02-04T08:53:30.731Z,17.67
2023-02-04T08:56:03.779Z,26.82
2023-02-04T08:58:38.009Z,20.40
2023-02-04T09:01:11.633Z,16.45
2023-02-04T09:03:45.149Z,17.45
2023-02-04T09:06:18.038Z,16.50
2023-02-04T09:08:50.879Z,17.70
2023-02-04T09:11:24.148Z,16.57
2023-02-04T09:13:58.565Z,18.30
2023-02-04T09:16:31.850Z,20.32
2023-02-04T09:19:06.612Z,15.63
2023-02-04T09:21:39.685Z,14.40
2023-02-04T09:24:12.678Z,14.28
2023-02-04T09:26:45.756Z,14.23
2023-02-04T09:29:19.004Z,15.20
2023-02-04T09:31:51.947Z,16.75
2023-02-04T09:34:25.481Z,13.70
2023-02-04T09:36:58.249Z,18.55
2023-02-04T09:39:31.676Z,16.12
2023-02-04T09:42:05.108Z,20.37
2023-02-04T09:44:38.573Z,18.15
2023-02-04T09:47:13.473Z,17.40
2023-02-04T09:49:47.692Z,16.37
2023-02-04T09:52:20.925Z,15.00
2023-02-04T09:54:53.916Z,15.32
2023-02-04T09:57:26.675Z,16.15
2023-02-04T09:59:59.309Z,17.25
2023-02-04T10:02:32.460Z,12.23
2023-02-04T10:05:05.607Z,8.85
2023-02-04T10:07:38.684Z,10.18
2023-02-04T10:10:25.438Z,10.95
2023-02-04T10:13:01.256Z,11.18
2023-02-04T10:15:35.655Z,9.90
2023-02-04T10:18:10.441Z,9.00
2023-02-04T10:20:43.413Z,9.93
2023-02-04T10:23:16.878Z,10.20
2023-02-04T10:25:49.707Z,8.93
2023-02-04T10:28:22.750Z,9.63
2023-02-04T10:30:55.784Z,11.53
2023-02-04T10:33:29.113Z,9.10
2023-02-04T10:36:02.157Z,11.10
2023-02-04T10:38:36.002Z,8.83
2023-02-04T10:43:44.058Z,9.05
2023-02-04T10:46:20.586Z,9.18
2023-02-04T10:48:54.132Z,10.50
2023-02-04T10:54:18.441Z,11.18
2023-02-04T10:56:52.429Z,8.30
2023-02-04T10:59:28.241Z,7.40
2023-02-04T11:02:04.166Z,9.60
2023-02-04T11:04:38.741Z,11.85
2023-02-04T11:07:14.434Z,10.48
2023-02-04T11:09:48.778Z,9.38
2023-02-04T11:12:46.722Z,7.65
2023-02-04T11:15:50.796Z,6.78
2023-02-04T11:18:30.207Z,8.65
2023-02-04T11:21:03.395Z,6.70
2023-02-04T11:23:37.580Z,7.90
2023-02-04T11:26:22.451Z,6.95
2023-02-04T11:29:06.056Z,7.37
2023-02-04T11:31:59.040Z,7.72
2023-02-04T11:34:33.959Z,7.00
2023-02-04T11:37:20.128Z,6.28
2023-02-04T11:39:53.197Z,7.33
2023-02-04T11:42:42.594Z,6.97
2023-02-04T11:45:22.743Z,6.17
2023-02-04T11:47:58.842Z,5.78
2023-02-04T11:50:35.377Z,6.37
2023-02-04T11:53:11.497Z,6.80
2023-02-04T11:55:48.490Z,8.53
2023-02-04T11:58:24.548Z,7.22
2023-02-04T12:00:57.530Z,8.10
2023-02-04T12:03:36.844Z,12.67
2023-02-04T12:06:09.686Z,11.03
2023-02-04T12:08:43.204Z,12.03
2023-02-04T12:11:29.937Z,10.35
2023-02-04T12:14:14.077Z,8.40
2023-02-04T12:16:52.387Z,8.33
2023-02-04T12:19:27.583Z,11.43
2023-02-04T12:21:59.727Z,7.62
2023-02-04T12:24:32.687Z,7.37
2023-02-04T12:27:05.716Z,8.93
2023-02-04T12:29:39.123Z,8.75
2023-02-04T12:32:11.935Z,10.85
2023-02-04T12:34:45.407Z,8.70
2023-02-04T12:37:18.368Z,10.00
2023-02-04T12:39:51.130Z,11.00
2023-02-04T12:42:24.238Z,12.53
2023-02-04T12:44:57.080Z,8.50
2023-02-04T12:47:29.922Z,9.63
2023-02-04T12:50:03.029Z,11.35
2023-02-04T12:52:37.205Z,12.53
2023-02-04T12:55:10.915Z,12.40
2023-02-04T12:57:43.917Z,13.32
2023-02-04T13:00:19.288Z,11.22
2023-02-04T13:02:52.155Z,12.15
2023-02-04T13:05:25.023Z,12.78
2023-02-04T13:07:58.953Z,14.00
2023-02-04T13:10:31.907Z,14.55
2023-02-04T13:15:39.390Z,13.70
2023-02-04T13:18:12.227Z,17.37
2023-02-04T13:20:46.319Z,15.20
2023-02-04T13:23:19.127Z,13.40
2023-02-04T13:25:52.186Z,12.33
2023-02-04T13:28:25.106Z,13.25
2023-02-04T13:30:58.100Z,14.55
2023-02-04T13:33:31.252Z,13.27
2023-02-04T13:36:04.756Z,10.68
2023-02-04T13:38:37.722Z,12.93
2023-02-04T13:41:10.861Z,15.38
2023-02-04T13:43:44.029Z,14.40
2023-02-04T13:46:17.014Z,12.98
2023-02-04T13:48:51.024Z,13.00
2023-02-04T13:51:24.152Z,14.53
2023-02-04T13:53:57.474Z,16.23
2023-02-04T13:56:32.348Z,16.45
2023-02-04T13:59:05.832Z,15.08
2023-02-04T14:01:39.406Z,13.20
2023-02-04T14:04:12.084Z,12.80
2023-02-04T14:06:44.984Z,13.43
2023-02-04T14:09:18.144Z,9.60
2023-02-04T14:11:52.045Z,10.97
2023-02-04T14:14:24.885Z,12.23
2023-02-04T14:16:58.486Z,13.03
2023-02-04T14:19:31.498Z,10.63
2023-02-04T14:22:04.491Z,9.10
2023-02-04T14:24:39.016Z,9.55
2023-02-04T14:27:12.485Z,10.60
2023-02-04T14:29:45.352Z,10.43
2023-02-04T14:32:18.753Z,13.00
2023-02-04T14:34:52.607Z,10.20
2023-02-04T14:37:27.408Z,11.88
2023-02-04T14:40:01.395Z,12.45
2023-02-04T14:42:34.511Z,13.83
2023-02-04T14:45:12.596Z,13.50
2023-02-04T14:47:46.539Z,15.90
2023-02-04T14:50:20.104Z,14.63
2023-02-04T14:52:52.935Z,14.05
2023-02-04T14:55:27.477Z,13.10
2023-02-04T14:58:00.443Z,16.00
2023-02-04T15:00:34.083Z,14.77
2023-02-04T15:03:07.533Z,16.10
2023-02-04T15:05:41.309Z,15.13
2023-02-04T15:08:14.207Z,14.43
2023-02-04T15:10:47.696Z,17.55
2023-02-04T15:13:21.297Z,16.10
2023-02-04T15:18:27.525Z,16.02
2023-02-04T15:21:02.100Z,16.52
2023-02-04T15:23:35.759Z,17.50
2023-02-04T15:26:08.583Z,19.17
2023-02-04T15:28:42.586Z,18.57
2023-02-04T15:31:15.662Z,17.98
2023-02-04T15:33:49.376Z,18.30
2023-02-04T15:36:22.439Z,19.42
2023-02-04T15:38:55.221Z,20.97
2023-02-04T15:41:27.853Z,19.67
2023-02-04T15:44:00.744Z,18.12
2023-02-04T15:46:36.437Z,20.73
2023-02-04T15:49:09.669Z,24.72
2023-02-04T15:51:42.959Z,26.77
2023-02-04T15:54:16.668Z,25.02
2023-02-04T15:56:49.729Z,25.30
2023-02-04T15:59:23.616Z,28.77
2023-02-04T16:01:57.210Z,29.85
2023-02-04T16:04:30.264Z,33.02
2023-02-04T16:07:04.944Z,27.90
2023-02-04T16:09:38.669Z,25.02
2023-02-04T16:12:11.939Z,22.82
2023-02-04T16:14:44.895Z,27.02
2023-02-04T16:17:19.154Z,25.85
2023-02-04T16:19:52.707Z,24.43
2023-02-04T16:22:26.081Z,21.03
2023-02-04T16:24:59.325Z,20.75
2023-02-04T16:27:32.194Z,24.20
2023-02-04T16:30:06.563Z,22.22
2023-02-04T16:32:39.416Z,22.73
2023-02-04T16:35:12.286Z,25.35
2023-02-04T16:37:45.771Z,26.17
2023-02-04T16:40:19.713Z,20.72
2023-02-04T16:42:52.821Z,24.80
2023-02-04T16:45:25.680Z,23.55
2023-02-04T16:47:58.594Z,23.07
2023-02-04T16:50:32.806Z,26.97
2023-02-04T16:53:06.120Z,26.85
2023-02-04T16:55:39.925Z,27.42
2023-02-04T16:58:13.833Z,25.90
2023-02-04T17:00:46.887Z,21.65
2023-02-04T17:03:20.398Z,18.17
2023-02-04T17:05:53.121Z,20.57
2023-02-04T17:08:26.401Z,19.73
2023-02-04T17:11:17.234Z,21.13
2023-02-04T17:13:50.101Z,23.42
2023-02-04T17:16:23.640Z,21.73
2023-02-04T17:18:57.241Z,20.12
2023-02-04T17:21:31.681Z,21.80
2023-02-04T17:24:04.627Z,23.20
2023-02-04T17:26:39.880Z,19.80
2023-02-04T17:29:17.567Z,20.37
2023-02-04T17:31:50.536Z,20.80
2023-02-04T17:34:23.996Z,16.32
2023-02-04T17:36:57.830Z,21.07
2023-02-04T17:39:32.373Z,18.73
2023-02-04T17:42:05.516Z,19.90
2023-02-04T17:44:38.562Z,23.38
2023-02-04T17:47:11.671Z,19.42
2023-02-04T17:49:44.636Z,20.80
2023-02-04T17:52:17.417Z,22.75
2023-02-04T17:54:50.726Z,23.50
2023-02-04T17:57:23.948Z,22.85
2023-02-04T17:59:57.206Z,20.75
2023-02-04T18:02:32.298Z,19.40
2023-02-04T18:05:16.078Z,17.77
2023-02-04T18:08:00.746Z,16.90
2023-02-04T18:13:26.641Z,19.23
2023-02-04T18:16:03.149Z,14.80
2023-02-04T18:18:41.198Z,16.82
2023-02-04T18:21:34.332Z,17.40
2023-02-04T18:24:30.628Z,19.20
2023-02-04T18:27:19.465Z,20.00
2023-02-04T18:29:59.318Z,18.67
2023-02-04T18:32:41.075Z,17.85
2023-02-04T18:35:40.301Z,17.42
2023-02-04T18:38:37.712Z,19.80
2023-02-04T18:41:23.712Z,18.27
2023-02-04T18:44:06.289Z,21.23
2023-02-04T18:46:43.195Z,19.40
2023-02-04T18:49:29.347Z,20.10
2023-02-04T18:52:06.573Z,20.32
2023-02-04T18:54:42.488Z,19.42
2023-02-04T18:57:24.434Z,20.88
2023-02-04T19:00:18.444Z,21.90
2023-02-04T19:03:00.862Z,23.45
2023-02-04T19:05:40.362Z,21.97
2023-02-04T19:08:29.388Z,23.02
2023-02-04T19:11:02.739Z,23.25
2023-02-04T19:13:44.531Z,21.90
2023-02-04T19:16:36.662Z,25.68
2023-02-04T19:19:42.397Z,23.45
2023-02-04T19:22:21.836Z,24.75
2023-02-04T19:25:20.708Z,25.88
2023-02-04T19:28:00.284Z,22.85
2023-02-04T19:30:38.269Z,19.55
2023-02-04T19:33:33.209Z,17.23
2023-02-04T19:36:40.221Z,18.65
2023-02-04T19:39:34.109Z,19.65
2023-02-04T19:42:26.983Z,19.30
2023-02-04T19:45:03.324Z,19.15
2023-02-04T19:47:45.571Z,15.63
2023-02-04T19:50:36.907Z,18.12
2023-02-04T19:53:27.096Z,15.43
2023-02-04T19:55:59.973Z,14.80
2023-02-04T19:58:43.691Z,16.55
2023-02-04T20:01:21.212Z,15.55
2023-02-04T20:03:54.072Z,18.37
2023-02-04T20:06:36.496Z,17.92
2023-02-04T20:09:29.707Z,16.20
2023-02-04T20:12:06.643Z,15.63
2023-02-04T20:14:53.949Z,15.03
2023-02-04T20:17:41.809Z,15.45
2023-02-04T20:20:32.820Z,14.45
2023-02-04T20:23:30.608Z,13.13
2023-02-04T20:26:03.827Z,13.98
2023-02-04T20:28:42.605Z,14.23
2023-02-04T20:31:26.071Z,14.85
2023-02-04T20:34:01.119Z,14.28
2023-02-04T20:36:39.387Z,13.22
2023-02-04T20:39:36.448Z,17.02
2023-02-04T20:42:25.659Z,14.47
2023-02-04T20:45:20.078Z,13.28
2023-02-04T20:47:57.794Z,15.17
2023-02-04T20:50:52.296Z,14.35
2023-02-04T20:53:57.390Z,13.80
2023-02-04T20:56:39.545Z,12.43
2023-02-04T20:59:31.116Z,16.27
2023-02-04T21:02:05.228Z,13.75
2023-02-04T21:04:47.206Z,15.75
2023-02-04T21:07:23.190Z,14.13
2023-02-04T21:09:58.121Z,15.90
2023-02-04T21:12:32.264Z,15.65
2023-02-04T21:15:05.007Z,12.23
2023-02-04T21:17:37.891Z,13.60
2023-02-04T21:20:12.230Z,14.28
2023-02-04T21:22:45.757Z,13.43
2023-02-04T21:25:18.956Z,17.00
2023-02-04T21:27:52.309Z,15.98
2023-02-04T21:30:27.589Z,16.73
2023-02-04T21:33:02.157Z,15.00
2023-02-04T21:38:08.447Z,17.23
2023-02-04T21:40:41.759Z,19.60
2023-02-04T21:43:14.954Z,15.72
2023-02-04T21:45:47.949Z,16.42
2023-02-04T21:48:20.657Z,18.23
2023-02-04T21:50:54.791Z,18.92
2023-02-04T21:53:27.736Z,22.48
2023-02-04T21:56:00.817Z,23.95
2023-02-04T21:58:34.174Z,22.17
2023-02-04T22:01:07.550Z,20.85
2023-02-04T22:03:40.433Z,26.97
2023-02-04T22:06:13.531Z,23.85
2023-02-04T22:08:46.638Z,22.77
2023-02-04T22:11:20.010Z,23.62
2023-02-04T22:13:53.412Z,23.20
2023-02-04T22:16:27.052Z,20.75
2023-02-04T22:19:00.473Z,25.27
2023-02-04T22:21:35.147Z,23.57
2023-02-04T22:24:08.430Z,25.62
2023-02-04T22:26:41.474Z,20.90
2023-02-04T22:29:15.113Z,21.65
2023-02-04T22:31:47.855Z,22.32
2023-02-04T22:34:20.943Z,27.17
2023-02-04T22:36:55.818Z,23.77
2023-02-04T22:39:28.738Z,25.48
2023-02-04T22:42:02.222Z,26.10
2023-02-04T22:44:35.098Z,22.50
2023-02-04T22:47:08.555Z,23.65
2023-02-04T22:49:44.358Z,25.43
2023-02-04T22:52:17.858Z,28.15
2023-02-04T22:54:50.722Z,25.52
2023-02-04T22:57:23.979Z,28.42
2023-02-04T22:59:56.785Z,24.95
2023-02-04T23:02:30.039Z,27.48
2023-02-04T23:05:03.084Z,28.00
2023-02-04T23:07:37.351Z,28.62
2023-02-04T23:10:10.884Z,27.52
2023-02-04T23:12:44.439Z,28.25
2023-02-04T23:15:17.603Z,29.20
2023-02-04T23:17:52.641Z,29.25
2023-02-04T23:20:25.485Z,26.75
2023-02-04T23:22:58.715Z,29.42
2023-02-04T23:25:32.021Z,28.87
2023-02-04T23:28:06.155Z,30.65
2023-02-04T23:30:39.267Z,28.10
2023-02-04T23:33:12.078Z,27.27
2023-02-04T23:35:44.937Z,22.90
2023-02-04T23:38:17.885Z,27.20
2023-02-04T23:40:51.452Z,23.87
2023-02-04T23:43:24.352Z,22.55
2023-02-04T23:45:57.553Z,23.92
2023-02-04T23:48:31.570Z,27.80
2023-02-04T23:51:06.604Z,26.65
2023-02-04T23:56:12.135Z,28.25
2023-02-04T23:58:44.957Z,26.05
